Terminal Aerodrome Forecast
Issued by NWS

Home | Current Version | Previous Version | Text Only | Print | Product List | Glossary On
Versions: 1 2 3 4 5 6 7 8 9 10 11 12
192
FTUS45 KFGZ 272322
TAFPRC
TAF
KPRC 272322Z 2800/2824 26010KT P6SM VCTS FEW050CB BKN120
     FM280200 21005KT P6SM FEW100=

USA.gov is the U.S. government's official web portal to all federal, state and local government web resources and services.